WAAAWAJJ

Guest
Details From WAAA - Ujung Pandang Hasanuddin
To WAJJ - Jayapura Sentani
Flight Number -
Tags Generated
Created
Modified
Stats Distance 1,265 nm / 2,343 km
Max Altitude 0 ft / 0 m
Waypoints 3
Social Downloads 8
Likes 0
Share VATSIM

Download

Looking for another format? Having issues loading an existing format? Contact us
Advertisement - Login to hide

Notes

Generated

Route

WAAA ZN WAJJ

ID Type Via Altitude Latitude Longitude Leg Dist Tot Dist Heading (true) Name
O WAAA APT - 0 ft / 0 m -5.05429˚ 119.54548˚ - 0 nm - -
ZN NDB - 0 ft / 0 m -2.56824˚ 140.50746˚ 1264 nm 1264 nm 84° / 83° JAYAPURA NDB
O WAJJ APT - 0 ft / 0 m -2.57111˚ 140.50859˚ 0 nm 1265 nm 159° / 159° -

Altitude Profile

Advertisement - Login to hide

Weather


0- 5 10 15 20 25 30 35+ Temperature / ° C

Clouds and Precipitation
Forecast for 2017-12-11 00:00 UTC. Updated an hour ago

Ground ~20,000 ft ~40,000 ft Winds

WAAA

Details ICAO WAAA (UPG)
Name Ujung Pandang Hasanuddin
Region Indonesia
Timezone Asia/Makassar (UTC+8.0)
Stats Elevation 47 ft / 14 m (AMSL)
Location -5.061630° 119.554043°
Runways 1
Magnetic Variation 0.852° E

METAR

WAAA 110030Z 10003KT 070V130 9999 FEW019 27/24 Q1012 NOSIG

Decode

TAF

Not found

Departure Runways

ID Width Length Bearing (true) Bearing (mag) Surface Threshold Offset Overrun Length
13 148 ft / 45 m 8,214 ft / 2,504 m 130.71° 129.86° Asphalt 0 ft / 0 m 200 ft / 61 m
31 148 ft / 45 m 8,214 ft / 2,504 m 310.71° 309.86° Asphalt 0 ft / 0 m 200 ft / 61 m

WAJJ

Details ICAO WAJJ (DJJ)
Name Jayapura Sentani
Region Indonesia
Timezone Asia/Jayapura (UTC+9.0)
Stats Elevation 289 ft / 88 m (AMSL)
Location -2.576982° 140.516471°
Runways 1
Magnetic Variation 3.271° E

METAR

WAJJ 102300Z 14004KT 9999 SCT013 29/24 Q1009

Decode

TAF

Not found

Destination Runways

ID Width Length Bearing (true) Bearing (mag) Surface Threshold Offset Overrun Length
12 148 ft / 45 m 7,172 ft / 2,186 m 126.72° 123.45° Asphalt 0 ft / 0 m 197 ft / 60 m
30 148 ft / 45 m 7,172 ft / 2,186 m 306.72° 303.45° Asphalt 0 ft / 0 m 197 ft / 60 m

Approach Navaids

Runway Type Ident Frequency Range Bearing (true) Bearing (mag) Slope Elevation
30 Localiser IJPA 110.30 MHz 18 nm / 33 km 306.72° 303.45° - 289 ft / 88 m (AMSL)
30 Glidescope IJPA 110.30 MHz 10 nm / 19 km 306.72° 303.45° 3.00° 289 ft / 88 m (AMSL)
30 DME IJPA 110.30 MHz 18 nm / 33 km - - - 289 ft / 88 m (AMSL)

Popular Alternatives